Time;durP1;ratioP1;P1;durP2;ratioP2;P2;SDS_P1;SDS_P2;PMS_P1;PMS_P2;Temp;Humidity;BMP_temperature;BMP_pressure;BME280_temperature;BME280_humidity;BME280_pressure;Samples;Min_cycle;Max_cycle;Signal;HPM_P1;HPM_P2
2022/10/04 00:00:45;;;;;;;;;;;11.00;85.30;;;;;;5016541;28;19916;-84
2022/10/04 00:03:23;;;;;;;;;;;11.00;85.40;;;;;;5036638;28;19917;-84
2022/10/04 00:05:50;;;;;;;;;;;11.00;85.60;;;;;;5036242;28;20367;-84
2022/10/04 00:08:16;;;;;;;;;;;11.00;85.60;;;;;;5035956;28;19909;-84
2022/10/04 00:10:43;;;;;;;;;;;11.10;85.30;;;;;;5017294;28;19909;-84
2022/10/04 00:13:15;;;;;;;;;;;11.10;85.40;;;;;;5019498;28;19909;-84
2022/10/04 00:15:40;;;;;;;;;;;11.10;85.60;;;;;;5020536;28;19909;-84
2022/10/04 00:18:15;;;;;;;;;;;11.10;85.70;;;;;;5021063;28;20282;-84
2022/10/04 00:20:47;;;;;;;;;;;11.20;85.20;;;;;;5029813;28;19913;-84
2022/10/04 00:23:21;;;;;;;;;;;11.20;85.00;;;;;;5028986;28;19976;-84
2022/10/04 00:25:47;;;;;;;;;;;11.30;84.60;;;;;;5055077;28;19934;-84
2022/10/04 00:28:16;;;;;;;;;;;11.20;84.70;;;;;;5051694;28;19940;-84
2022/10/04 00:30:41;;;;;;;;;;;11.20;84.70;;;;;;5055085;28;20003;-84
2022/10/04 00:33:07;;;;;;;;;;;11.30;84.60;;;;;;5038697;28;19940;-84
2022/10/04 00:35:34;;;;;;;;;;;11.30;84.70;;;;;;5037365;28;20273;-84
2022/10/04 00:38:05;;;;;;;;;;;11.30;84.80;;;;;;5037257;28;20436;-84
2022/10/04 00:40:38;;;;;;;;;;;11.40;84.70;;;;;;5022604;28;19920;-82
2022/10/04 00:43:15;;;;;;;;;;;11.40;84.80;;;;;;5016602;28;19913;-84
2022/10/04 00:45:50;;;;;;;;;;;11.30;84.80;;;;;;5016792;28;19909;-84
2022/10/04 00:48:15;;;;;;;;;;;11.30;84.70;;;;;;5034353;28;19991;-84
2022/10/04 00:50:45;;;;;;;;;;;11.30;84.90;;;;;;5015676;28;19940;-84
2022/10/04 00:53:21;;;;;;;;;;;11.40;84.40;;;;;;5016384;28;19913;-83
2022/10/04 00:55:50;;;;;;;;;;;11.40;84.50;;;;;;5050717;28;20297;-84
2022/10/04 00:58:25;;;;;;;;;;;11.40;84.60;;;;;;5035614;28;19909;-83
2022/10/04 01:00:52;;;;;;;;;;;11.40;84.70;;;;;;5034540;28;20012;-84
2022/10/04 01:03:21;;;;;;;;;;;11.30;85.00;;;;;;5053781;28;19959;-84
2022/10/04 01:05:49;;;;;;;;;;;11.40;85.00;;;;;;5034616;28;19924;-84
2022/10/04 01:08:17;;;;;;;;;;;11.40;85.10;;;;;;5035163;28;19908;-84
2022/10/04 01:10:51;;;;;;;;;;;11.40;84.80;;;;;;5052518;28;19912;-84
2022/10/04 01:13:18;;;;;;;;;;;11.40;84.60;;;;;;5033276;28;19999;-84
2022/10/04 01:15:49;;;;;;;;;;;11.40;84.70;;;;;;5050956;28;20004;-84
2022/10/04 01:18:27;;;;;;;;;;;11.40;84.50;;;;;;5032874;28;19958;-84
2022/10/04 01:20:55;;;;;;;;;;;11.40;84.10;;;;;;5031614;28;19920;-84
2022/10/04 01:23:35;;;;;;;;;;;11.40;84.20;;;;;;5032995;28;19988;-84
2022/10/04 01:26:01;;;;;;;;;;;11.40;83.90;;;;;;5032841;28;19936;-84
2022/10/04 01:28:27;;;;;;;;;;;11.40;83.70;;;;;;5050147;28;19897;-83
2022/10/04 01:30:53;;;;;;;;;;;11.40;83.80;;;;;;5074438;28;20417;-83
2022/10/04 01:33:19;;;;;;;;;;;11.30;84.10;;;;;;5047818;28;19924;-84
2022/10/04 01:35:45;;;;;;;;;;;11.40;84.40;;;;;;5032933;28;19909;-84
2022/10/04 01:38:11;;;;;;;;;;;11.40;83.90;;;;;;5053928;28;19916;-84
2022/10/04 01:40:49;;;;;;;;;;;11.40;83.90;;;;;;5052665;28;19912;-84
2022/10/04 01:43:20;;;;;;;;;;;11.40;83.50;;;;;;5037025;28;20298;-85
2022/10/04 01:45:47;;;;;;;;;;;11.30;83.70;;;;;;5037456;28;19963;-84
2022/10/04 01:48:20;;;;;;;;;;;11.40;83.60;;;;;;5037342;28;19909;-84
2022/10/04 01:50:50;;;;;;;;;;;11.40;83.40;;;;;;5035868;28;19915;-84
2022/10/04 01:53:24;;;;;;;;;;;11.40;83.40;;;;;;5054154;28;19913;-84
2022/10/04 01:55:50;;;;;;;;;;;11.50;83.10;;;;;;5036464;28;19931;-84
2022/10/04 01:58:18;;;;;;;;;;;11.40;83.30;;;;;;5036383;28;19909;-84
2022/10/04 02:00:53;;;;;;;;;;;11.40;83.00;;;;;;5053696;28;19966;-84
2022/10/04 02:03:31;;;;;;;;;;;11.50;83.10;;;;;;5054510;28;20370;-84
2022/10/04 02:05:59;;;;;;;;;;;11.50;82.70;;;;;;5055832;28;19904;-85
2022/10/04 02:08:29;;;;;;;;;;;11.50;82.70;;;;;;5041714;28;19912;-84
2022/10/04 02:10:55;;;;;;;;;;;11.50;82.70;;;;;;5040181;28;19909;-84
2022/10/04 02:13:23;;;;;;;;;;;11.40;83.40;;;;;;5058450;28;19908;-84
2022/10/04 02:15:48;;;;;;;;;;;11.30;83.90;;;;;;5039720;28;19963;-84
2022/10/04 02:18:16;;;;;;;;;;;11.30;83.90;;;;;;5039112;28;19909;-84
2022/10/04 02:20:42;;;;;;;;;;;11.30;84.10;;;;;;5052963;28;20393;-84
2022/10/04 02:23:08;;;;;;;;;;;11.30;84.10;;;;;;5038974;28;19913;-84
2022/10/04 02:25:35;;;;;;;;;;;11.40;83.80;;;;;;5056120;28;19913;-84
2022/10/04 02:28:00;;;;;;;;;;;11.40;83.70;;;;;;5038046;28;19916;-85
2022/10/04 02:30:26;;;;;;;;;;;11.40;84.00;;;;;;5055099;28;19935;-84
2022/10/04 02:32:59;;;;;;;;;;;11.40;83.60;;;;;;5037460;28;20378;-83
2022/10/04 02:35:26;;;;;;;;;;;11.30;83.50;;;;;;5037039;28;19934;-84
2022/10/04 02:37:54;;;;;;;;;;;11.20;83.80;;;;;;5053568;28;19927;-84
2022/10/04 02:40:22;;;;;;;;;;;11.20;84.30;;;;;;5035282;28;19917;-84
2022/10/04 02:42:59;;;;;;;;;;;11.20;84.10;;;;;;5036019;28;19956;-84
2022/10/04 02:45:41;;;;;;;;;;;11.20;83.90;;;;;;5053555;28;19935;-84
2022/10/04 02:48:21;;;;;;;;;;;11.10;84.00;;;;;;5035733;28;19916;-84
2022/10/04 02:50:49;;;;;;;;;;;11.10;84.10;;;;;;5034575;28;19909;-84
2022/10/04 02:53:17;;;;;;;;;;;11.10;84.20;;;;;;5034937;28;19918;-84
2022/10/04 02:55:43;;;;;;;;;;;11.10;84.40;;;;;;5053429;28;19909;-84
2022/10/04 02:58:09;;;;;;;;;;;11.00;84.40;;;;;;5035977;28;20310;-84
2022/10/04 03:00:43;;;;;;;;;;;11.10;84.30;;;;;;5038371;28;20358;-84
2022/10/04 03:03:24;;;;;;;;;;;11.10;84.10;;;;;;5038738;28;19912;-84
2022/10/04 03:05:55;;;;;;;;;;;11.10;84.20;;;;;;5055950;28;19919;-83
2022/10/04 03:08:20;;;;;;;;;;;11.10;84.00;;;;;;5035831;28;20027;-84
2022/10/04 03:10:46;;;;;;;;;;;11.10;83.70;;;;;;5034203;28;19986;-84
2022/10/04 03:13:12;;;;;;;;;;;11.20;83.90;;;;;;5036804;28;19920;-84
2022/10/04 03:15:38;;;;;;;;;;;11.10;84.10;;;;;;5036671;28;19962;-84
2022/10/04 03:18:04;;;;;;;;;;;11.20;83.70;;;;;;5036689;28;19913;-84
2022/10/04 03:20:29;;;;;;;;;;;11.30;83.50;;;;;;5034218;28;19912;-84
2022/10/04 03:22:55;;;;;;;;;;;11.20;83.80;;;;;;5051889;28;20003;-83
2022/10/04 03:25:23;;;;;;;;;;;11.20;84.10;;;;;;5052200;28;19909;-84
2022/10/04 03:27:49;;;;;;;;;;;11.20;84.10;;;;;;5034507;28;19928;-84
2022/10/04 03:30:15;;;;;;;;;;;11.10;84.30;;;;;;5033796;28;19956;-84
2022/10/04 03:32:41;;;;;;;;;;;11.00;84.50;;;;;;5035101;28;19999;-84
2022/10/04 03:35:16;;;;;;;;;;;11.00;84.80;;;;;;5052985;28;19960;-84
2022/10/04 03:37:42;;;;;;;;;;;10.90;85.10;;;;;;5052802;28;19936;-84
2022/10/04 03:40:08;;;;;;;;;;;11.00;85.10;;;;;;5034216;28;20260;-84
2022/10/04 03:42:35;;;;;;;;;;;11.10;85.10;;;;;;5058323;28;19913;-83
2022/10/04 03:45:01;;;;;;;;;;;11.10;85.20;;;;;;5068090;28;20319;-84
2022/10/04 03:47:31;;;;;;;;;;;11.10;85.00;;;;;;5038451;28;20370;-84
2022/10/04 03:49:59;;;;;;;;;;;11.00;85.30;;;;;;5055495;28;19912;-84
2022/10/04 03:52:27;;;;;;;;;;;11.00;85.10;;;;;;5055413;28;19963;-84
2022/10/04 03:54:54;;;;;;;;;;;11.00;85.30;;;;;;5037149;28;20385;-84
2022/10/04 03:57:20;;;;;;;;;;;11.00;85.00;;;;;;5037037;28;20259;-84
2022/10/04 03:59:46;;;;;;;;;;;10.90;85.20;;;;;;5036332;28;19916;-83
2022/10/04 04:02:20;;;;;;;;;;;10.80;85.50;;;;;;5054316;28;19996;-84
2022/10/04 04:04:54;;;;;;;;;;;10.80;85.70;;;;;;5035368;28;19913;-84
2022/10/04 04:07:24;;;;;;;;;;;10.80;85.70;;;;;;5035496;28;20452;-84
2022/10/04 04:09:58;;;;;;;;;;;10.80;85.80;;;;;;5034898;28;19913;-84
2022/10/04 04:12:32;;;;;;;;;;;10.80;86.00;;;;;;5053599;28;19959;-84
2022/10/04 04:14:58;;;;;;;;;;;10.80;85.80;;;;;;5035644;28;19960;-84
2022/10/04 04:17:24;;;;;;;;;;;10.80;85.50;;;;;;5053294;28;20355;-84
2022/10/04 04:19:49;;;;;;;;;;;10.80;85.40;;;;;;5048205;28;19920;-84
2022/10/04 04:22:15;;;;;;;;;;;10.80;85.20;;;;;;5030616;28;19924;-84
2022/10/04 04:24:42;;;;;;;;;;;10.90;84.80;;;;;;5035386;28;20017;-84
2022/10/04 04:27:09;;;;;;;;;;;10.80;85.20;;;;;;5035426;28;19931;-84
2022/10/04 04:29:37;;;;;;;;;;;10.80;85.70;;;;;;5034185;28;20404;-83
2022/10/04 04:32:11;;;;;;;;;;;10.80;85.90;;;;;;5035325;28;20015;-84
2022/10/04 04:34:51;;;;;;;;;;;10.80;85.70;;;;;;5035169;28;20027;-84
2022/10/04 04:37:17;;;;;;;;;;;10.70;85.60;;;;;;5034462;28;19916;-83
2022/10/04 04:39:47;;;;;;;;;;;10.70;85.40;;;;;;5052381;28;20393;-84
2022/10/04 04:42:20;;;;;;;;;;;10.70;85.60;;;;;;5034154;28;19909;-83
2022/10/04 04:44:47;;;;;;;;;;;10.70;85.40;;;;;;5034521;28;20012;-83
2022/10/04 04:47:33;;;;;;;;;;;10.80;84.80;;;;;;5052243;28;19909;-84
2022/10/04 04:50:18;;;;;;;;;;;10.70;84.80;;;;;;5023704;28;19917;-84
2022/10/04 04:52:49;;;;;;;;;;;10.70;84.80;;;;;;5042146;28;20350;-83
2022/10/04 04:55:20;;;;;;;;;;;10.70;84.70;;;;;;5033528;28;19936;-83
2022/10/04 04:57:46;;;;;;;;;;;10.70;84.80;;;;;;5034512;28;20397;-83
2022/10/04 05:00:19;;;;;;;;;;;10.70;84.90;;;;;;5034046;28;19913;-83
2022/10/04 05:02:54;;;;;;;;;;;10.60;85.10;;;;;;5055906;28;19901;-82
2022/10/04 05:05:19;;;;;;;;;;;10.60;85.20;;;;;;5076173;28;19935;-83
2022/10/04 05:07:45;;;;;;;;;;;10.60;85.50;;;;;;5039625;28;19923;-84
2022/10/04 05:10:27;;;;;;;;;;;10.60;85.60;;;;;;5050396;28;19909;-83
2022/10/04 05:12:52;;;;;;;;;;;10.70;85.40;;;;;;5032928;28;19919;-83
2022/10/04 05:15:18;;;;;;;;;;;10.80;85.50;;;;;;5032902;28;19912;-84
2022/10/04 05:17:44;;;;;;;;;;;10.70;85.50;;;;;;5055872;28;19909;-83
2022/10/04 05:20:10;;;;;;;;;;;10.80;85.40;;;;;;5056052;28;19999;-84
2022/10/04 05:22:38;;;;;;;;;;;10.80;85.40;;;;;;5055733;28;20576;-84
2022/10/04 05:25:08;;;;;;;;;;;10.90;85.40;;;;;;5059960;28;19916;-84
2022/10/04 05:27:41;;;;;;;;;;;10.80;85.00;;;;;;5041078;28;20256;-84
2022/10/04 05:30:08;;;;;;;;;;;10.90;85.20;;;;;;5055005;28;19916;-83
2022/10/04 05:32:39;;;;;;;;;;;10.80;85.00;;;;;;5054669;28;19912;-83
2022/10/04 05:35:19;;;;;;;;;;;10.90;85.10;;;;;;5036702;28;19909;-84
2022/10/04 05:37:53;;;;;;;;;;;11.00;84.60;;;;;;5055055;28;20286;-83
2022/10/04 05:40:30;;;;;;;;;;;11.00;84.40;;;;;;5055286;28;19916;-84
2022/10/04 05:42:58;;;;;;;;;;;11.00;84.90;;;;;;5047609;28;19968;-84
2022/10/04 05:45:28;;;;;;;;;;;11.00;84.20;;;;;;5055281;28;19915;-83
2022/10/04 05:47:54;;;;;;;;;;;10.90;84.50;;;;;;5056626;28;20180;-84
2022/10/04 05:50:32;;;;;;;;;;;11.00;84.60;;;;;;5073528;28;19936;-83
2022/10/04 05:53:17;;;;;;;;;;;10.90;84.50;;;;;;5061863;28;19909;-84
2022/10/04 05:55:49;;;;;;;;;;;11.00;84.60;;;;;;5035002;28;19920;-84
2022/10/04 05:58:33;;;;;;;;;;;10.90;84.70;;;;;;5031567;28;19909;-84
2022/10/04 06:01:19;;;;;;;;;;;10.80;85.10;;;;;;5030719;28;19925;-83
2022/10/04 06:03:45;;;;;;;;;;;10.80;85.10;;;;;;5034366;28;19924;-82
2022/10/04 06:06:15;;;;;;;;;;;10.80;85.40;;;;;;5038367;28;19921;-80
2022/10/04 06:08:59;;;;;;;;;;;10.80;85.30;;;;;;5052495;28;19913;-81
2022/10/04 06:11:31;;;;;;;;;;;10.90;85.00;;;;;;5066180;28;19913;-81
2022/10/04 06:14:02;;;;;;;;;;;10.90;84.70;;;;;;5042359;28;19909;-81
2022/10/04 06:16:47;;;;;;;;;;;10.90;84.80;;;;;;5042100;28;19963;-82
2022/10/04 06:19:22;;;;;;;;;;;10.90;85.00;;;;;;5044457;28;19937;-81
2022/10/04 06:21:48;;;;;;;;;;;10.90;85.20;;;;;;5025474;28;19917;-82
2022/10/04 06:24:16;;;;;;;;;;;10.90;85.30;;;;;;5044359;28;20389;-82
2022/10/04 06:26:47;;;;;;;;;;;11.00;85.60;;;;;;5045826;28;19916;-82
2022/10/04 06:29:14;;;;;;;;;;;11.00;85.60;;;;;;5044457;28;20371;-82
2022/10/04 06:31:59;;;;;;;;;;;11.00;85.90;;;;;;5046562;28;19976;-82
2022/10/04 06:34:35;;;;;;;;;;;11.00;86.00;;;;;;5064017;28;19909;-82
2022/10/04 06:37:01;;;;;;;;;;;11.00;85.80;;;;;;5044991;28;19963;-82
2022/10/04 06:39:41;;;;;;;;;;;11.00;85.50;;;;;;5062636;28;19913;-82
2022/10/04 06:42:26;;;;;;;;;;;11.00;85.30;;;;;;5044576;28;20393;-81
2022/10/04 06:45:10;;;;;;;;;;;11.00;85.40;;;;;;5056617;28;19920;-82
2022/10/04 06:47:43;;;;;;;;;;;11.20;84.90;;;;;;5037823;28;19959;-82
2022/10/04 06:50:24;;;;;;;;;;;11.20;85.00;;;;;;5056820;28;19999;-82
2022/10/04 06:53:15;;;;;;;;;;;11.30;85.30;;;;;;5038811;28;19933;-83
2022/10/04 06:55:50;;;;;;;;;;;11.30;85.20;;;;;;5034380;28;20016;-82
2022/10/04 06:58:34;;;;;;;;;;;11.40;84.80;;;;;;5056088;28;19914;-81
2022/10/04 07:01:09;;;;;;;;;;;11.30;84.80;;;;;;5052295;28;19917;-82
2022/10/04 07:03:53;;;;;;;;;;;11.30;85.00;;;;;;5051290;28;19960;-82
2022/10/04 07:06:24;;;;;;;;;;;11.40;84.90;;;;;;5050136;28;19912;-81
2022/10/04 07:08:51;;;;;;;;;;;11.50;84.80;;;;;;5041210;28;19921;-82
2022/10/04 07:11:19;;;;;;;;;;;11.50;83.40;;;;;;5065459;28;20012;-81
2022/10/04 07:14:04;;;;;;;;;;;11.50;82.90;;;;;;5066517;28;20294;-83
2022/10/04 07:16:42;;;;;;;;;;;11.60;82.90;;;;;;5056906;28;20067;-82
2022/10/04 07:19:08;;;;;;;;;;;11.60;83.50;;;;;;5039580;28;19920;-81
2022/10/04 07:21:45;;;;;;;;;;;11.80;83.30;;;;;;5056179;28;19917;-82
2022/10/04 07:24:12;;;;;;;;;;;11.80;83.50;;;;;;5056331;28;19916;-82
2022/10/04 07:26:48;;;;;;;;;;;11.90;83.70;;;;;;5033398;28;19912;-82
2022/10/04 07:29:26;;;;;;;;;;;12.00;83.30;;;;;;5045189;28;19912;-82
2022/10/04 07:32:04;;;;;;;;;;;12.10;83.00;;;;;;5059026;28;20279;-82
2022/10/04 07:34:39;;;;;;;;;;;12.10;82.80;;;;;;5062463;28;19924;-81
2022/10/04 07:37:09;;;;;;;;;;;12.10;82.60;;;;;;5026718;28;20008;-82
2022/10/04 07:39:49;;;;;;;;;;;12.10;81.60;;;;;;5033412;28;19932;-82
2022/10/04 07:42:14;;;;;;;;;;;12.30;81.70;;;;;;5023732;28;19971;-81
2022/10/04 07:44:41;;;;;;;;;;;12.30;81.60;;;;;;5046097;28;20059;-82
2022/10/04 07:47:20;;;;;;;;;;;12.40;81.30;;;;;;5030078;28;19913;-82
2022/10/04 07:49:49;;;;;;;;;;;12.40;80.90;;;;;;5047363;28;20004;-82
2022/10/04 07:52:24;;;;;;;;;;;12.40;80.60;;;;;;5024878;28;20008;-82
2022/10/04 07:55:05;;;;;;;;;;;12.50;80.90;;;;;;5052343;28;19917;-83
2022/10/04 07:57:47;;;;;;;;;;;12.40;80.50;;;;;;5046980;28;19913;-84
2022/10/04 08:00:15;;;;;;;;;;;12.30;80.80;;;;;;5033573;28;19916;-81
2022/10/04 08:02:59;;;;;;;;;;;12.40;81.10;;;;;;5047331;28;19921;-82
2022/10/04 08:05:28;;;;;;;;;;;12.50;81.50;;;;;;5033582;28;19924;-82
2022/10/04 08:08:06;;;;;;;;;;;12.50;80.70;;;;;;5048355;28;20019;-82
2022/10/04 08:10:35;;;;;;;;;;;12.60;80.70;;;;;;5053506;28;19928;-81
2022/10/04 08:13:25;;;;;;;;;;;12.70;80.10;;;;;;5047414;28;19919;-82
2022/10/04 08:15:51;;;;;;;;;;;12.70;80.40;;;;;;5043542;28;19928;-82
2022/10/04 08:18:42;;;;;;;;;;;12.80;80.60;;;;;;5031865;28;20282;-82
2022/10/04 08:21:08;;;;;;;;;;;12.80;80.30;;;;;;5031085;28;19917;-82
2022/10/04 08:23:40;;;;;;;;;;;12.80;80.10;;;;;;5054921;28;20371;-81
2022/10/04 08:26:27;;;;;;;;;;;12.80;80.10;;;;;;5034599;28;19913;-82
2022/10/04 08:31:56;;;;;;;;;;;12.80;79.50;;;;;;5051266;28;19922;-82
2022/10/04 08:34:30;;;;;;;;;;;12.80;80.30;;;;;;5062055;28;19972;-82
2022/10/04 08:37:08;;;;;;;;;;;12.70;80.70;;;;;;5074840;28;19909;-81
2022/10/04 08:39:47;;;;;;;;;;;12.60;81.20;;;;;;5047416;28;19920;-81
2022/10/04 08:42:32;;;;;;;;;;;12.80;79.40;;;;;;5031130;28;19912;-82
2022/10/04 08:45:14;;;;;;;;;;;12.80;80.00;;;;;;5028115;28;19921;-82
2022/10/04 08:47:53;;;;;;;;;;;12.80;80.40;;;;;;5031264;28;19913;-82
2022/10/04 08:50:22;;;;;;;;;;;13.00;79.40;;;;;;5032488;28;19917;-82
2022/10/04 08:52:57;;;;;;;;;;;13.00;80.00;;;;;;5027404;28;19959;-83
2022/10/04 08:55:33;;;;;;;;;;;13.00;79.80;;;;;;5037566;28;20295;-82
2022/10/04 08:58:12;;;;;;;;;;;13.00;80.60;;;;;;5049640;28;19909;-82
2022/10/04 09:00:58;;;;;;;;;;;13.10;79.60;;;;;;5041910;28;19970;-82
2022/10/04 09:03:47;;;;;;;;;;;13.30;78.60;;;;;;5049073;28;19917;-82
2022/10/04 09:06:35;;;;;;;;;;;13.40;78.10;;;;;;5041040;28;20374;-82
2022/10/04 09:09:19;;;;;;;;;;;13.40;78.00;;;;;;5057270;28;20016;-81
2022/10/04 09:12:04;;;;;;;;;;;13.60;77.10;;;;;;5038110;28;19956;-82
2022/10/04 09:14:41;;;;;;;;;;;13.70;76.90;;;;;;5054088;28;19917;-82
2022/10/04 09:17:29;;;;;;;;;;;13.60;75.50;;;;;;5029721;28;20011;-81
2022/10/04 09:20:01;;;;;;;;;;;13.60;75.60;;;;;;5033668;28;19935;-80
2022/10/04 09:22:34;;;;;;;;;;;13.80;76.00;;;;;;5054254;28;19968;-83
2022/10/04 09:25:12;;;;;;;;;;;13.60;77.10;;;;;;5040790;28;19955;-83
2022/10/04 09:27:57;;;;;;;;;;;13.80;75.90;;;;;;5029555;28;19917;-82
2022/10/04 09:30:33;;;;;;;;;;;13.70;76.20;;;;;;5037575;28;19944;-82
2022/10/04 09:32:59;;;;;;;;;;;13.90;76.40;;;;;;5045205;28;19913;-82
2022/10/04 09:35:52;;;;;;;;;;;13.90;76.00;;;;;;5049385;28;20382;-82
2022/10/04 09:38:26;;;;;;;;;;;13.90;76.50;;;;;;5018025;28;19920;-81
2022/10/04 09:41:07;;;;;;;;;;;13.90;76.50;;;;;;5027877;28;19943;-82
2022/10/04 09:43:49;;;;;;;;;;;14.10;75.80;;;;;;5020279;28;19917;-82
2022/10/04 09:46:18;;;;;;;;;;;14.10;74.80;;;;;;5028130;28;19920;-81
2022/10/04 09:48:53;;;;;;;;;;;14.20;75.00;;;;;;5036150;28;20396;-82
2022/10/04 09:51:19;;;;;;;;;;;14.20;75.10;;;;;;5030991;28;19919;-82
2022/10/04 09:53:53;;;;;;;;;;;14.30;73.70;;;;;;5045892;28;19913;-82
2022/10/04 09:56:37;;;;;;;;;;;14.30;75.40;;;;;;5048137;28;19909;-82
2022/10/04 09:59:17;;;;;;;;;;;14.30;75.80;;;;;;5044842;28;19909;-82
2022/10/04 10:01:53;;;;;;;;;;;14.40;75.20;;;;;;5015483;28;20298;-82
2022/10/04 10:04:40;;;;;;;;;;;14.40;76.00;;;;;;5037203;28;19920;-82
2022/10/04 10:07:09;;;;;;;;;;;14.50;73.90;;;;;;5036979;28;19912;-82
2022/10/04 10:15:16;;;;;;;;;;;14.80;72.60;;;;;;5063453;28;19946;-81
2022/10/04 10:17:57;;;;;;;;;;;14.90;71.30;;;;;;5048788;28;19963;-82
2022/10/04 10:20:35;;;;;;;;;;;15.00;70.40;;;;;;5048606;28;19921;-82
2022/10/04 10:23:03;;;;;;;;;;;15.10;70.10;;;;;;5177608;22;19970;-79
2022/10/04 10:25:29;;;;;;;;;;;15.10;68.50;;;;;;5081168;28;19920;-80
2022/10/04 10:27:57;;;;;;;;;;;15.20;67.70;;;;;;5044191;28;19917;-80
2022/10/04 10:30:49;;;;;;;;;;;15.30;68.20;;;;;;5048904;28;19920;-79
2022/10/04 10:33:21;;;;;;;;;;;15.10;69.40;;;;;;5044535;28;19917;-79
2022/10/04 10:35:52;;;;;;;;;;;15.10;69.00;;;;;;5049414;28;19913;-79
2022/10/04 10:38:50;;;;;;;;;;;15.30;68.60;;;;;;5051269;28;19912;-80
2022/10/04 10:41:19;;;;;;;;;;;15.30;68.00;;;;;;4995803;28;19956;-80
2022/10/04 10:44:02;;;;;;;;;;;15.40;67.50;;;;;;5049384;28;20327;-80
2022/10/04 10:46:38;;;;;;;;;;;15.50;66.80;;;;;;5057441;28;19912;-78
2022/10/04 10:49:06;;;;;;;;;;;15.60;66.60;;;;;;5060837;28;19931;-80
2022/10/04 10:51:41;;;;;;;;;;;15.60;65.90;;;;;;5048223;28;19970;-79
2022/10/04 10:54:23;;;;;;;;;;;15.50;66.10;;;;;;5055710;28;19915;-80
2022/10/04 10:56:48;;;;;;;;;;;15.60;66.20;;;;;;5059102;28;19916;-80
2022/10/04 10:59:23;;;;;;;;;;;15.80;66.40;;;;;;5037655;28;19917;-81
2022/10/04 11:02:08;;;;;;;;;;;15.80;65.50;;;;;;5041016;28;19912;-80
2022/10/04 11:04:42;;;;;;;;;;;15.80;66.10;;;;;;5048014;28;19924;-80
2022/10/04 11:07:15;;;;;;;;;;;15.80;65.90;;;;;;5042529;28;19948;-79
2022/10/04 11:09:40;;;;;;;;;;;15.90;66.50;;;;;;5039137;28;19996;-80
2022/10/04 11:12:24;;;;;;;;;;;15.80;67.90;;;;;;5038738;28;19955;-81
2022/10/04 11:15:02;;;;;;;;;;;15.70;68.50;;;;;;5058989;28;19909;-80
2022/10/04 11:17:46;;;;;;;;;;;15.60;68.10;;;;;;5050195;28;20365;-79
2022/10/04 11:20:30;;;;;;;;;;;15.70;68.40;;;;;;5046110;28;19964;-80
2022/10/04 11:23:15;;;;;;;;;;;15.80;67.10;;;;;;5055089;28;20396;-80
2022/10/04 11:25:46;;;;;;;;;;;15.90;66.70;;;;;;5048964;28;19992;-80
2022/10/04 11:28:17;;;;;;;;;;;15.90;68.60;;;;;;5054994;28;19913;-80
2022/10/04 11:30:57;;;;;;;;;;;15.90;68.80;;;;;;5048945;28;19913;-79
2022/10/04 11:33:23;;;;;;;;;;;16.00;68.00;;;;;;5050844;28;19913;-82
2022/10/04 11:35:53;;;;;;;;;;;16.00;68.70;;;;;;5055873;28;19967;-82
2022/10/04 11:38:47;;;;;;;;;;;15.90;68.90;;;;;;5046728;28;19913;-82
2022/10/04 11:41:32;;;;;;;;;;;15.90;68.80;;;;;;5041893;28;20627;-82
2022/10/04 11:44:20;;;;;;;;;;;16.00;68.10;;;;;;5056577;28;20000;-82
2022/10/04 11:46:54;;;;;;;;;;;16.10;68.60;;;;;;5057396;28;19909;-82
2022/10/04 11:49:37;;;;;;;;;;;16.20;65.30;;;;;;5035201;28;20392;-82
2022/10/04 11:52:16;;;;;;;;;;;16.40;64.50;;;;;;5044489;28;19913;-83
2022/10/04 11:55:00;;;;;;;;;;;16.50;63.50;;;;;;5047215;28;19913;-82
2022/10/04 11:57:26;;;;;;;;;;;16.50;63.70;;;;;;5037242;28;19924;-82
2022/10/04 12:00:09;;;;;;;;;;;16.50;64.00;;;;;;5042905;28;20003;-82
2022/10/04 12:02:49;;;;;;;;;;;16.60;63.80;;;;;;5049054;28;19921;-82
2022/10/04 12:05:34;;;;;;;;;;;16.60;62.90;;;;;;5058831;28;20007;-82
2022/10/04 12:08:08;;;;;;;;;;;16.60;64.50;;;;;;5046060;28;19917;-83
2022/10/04 12:10:36;;;;;;;;;;;16.50;64.20;;;;;;5056688;28;19951;-82
2022/10/04 12:13:07;;;;;;;;;;;16.60;64.80;;;;;;5057641;28;19952;-83
2022/10/04 12:15:39;;;;;;;;;;;16.60;65.10;;;;;;5051410;28;19913;-82
2022/10/04 12:18:22;;;;;;;;;;;16.60;66.40;;;;;;5050873;28;19924;-82
2022/10/04 12:21:07;;;;;;;;;;;16.50;67.00;;;;;;5048369;28;19932;-82
2022/10/04 12:23:54;;;;;;;;;;;16.40;67.10;;;;;;5046797;28;19956;-81
2022/10/04 12:26:22;;;;;;;;;;;16.50;66.50;;;;;;5042886;28;19920;-81
2022/10/04 12:29:01;;;;;;;;;;;16.50;64.70;;;;;;5042465;28;19913;-82
2022/10/04 12:31:34;;;;;;;;;;;16.50;64.50;;;;;;5047518;28;19913;-81
2022/10/04 12:34:15;;;;;;;;;;;16.60;64.70;;;;;;5047697;28;19913;-82
2022/10/04 12:36:53;;;;;;;;;;;16.80;63.80;;;;;;5040527;28;19913;-83
2022/10/04 12:39:21;;;;;;;;;;;16.80;62.90;;;;;;5042751;28;19912;-82
2022/10/04 12:42:06;;;;;;;;;;;17.00;63.90;;;;;;5051260;28;20034;-82
2022/10/04 12:44:49;;;;;;;;;;;17.00;64.00;;;;;;5060166;28;19916;-82
2022/10/04 12:47:31;;;;;;;;;;;17.00;61.90;;;;;;5044739;28;20445;-83
2022/10/04 12:50:03;;;;;;;;;;;17.10;62.10;;;;;;5046058;28;19912;-83
2022/10/04 12:52:38;;;;;;;;;;;17.20;60.40;;;;;;5047006;28;19935;-83
2022/10/04 12:55:22;;;;;;;;;;;17.30;59.60;;;;;;5044734;28;19920;-82
2022/10/04 12:57:52;;;;;;;;;;;17.50;58.80;;;;;;5058191;28;19959;-81
2022/10/04 13:00:22;;;;;;;;;;;17.60;59.10;;;;;;5038926;28;19913;-82
2022/10/04 13:03:04;;;;;;;;;;;17.40;58.60;;;;;;5044233;28;19935;-83
2022/10/04 13:05:45;;;;;;;;;;;17.50;57.70;;;;;;5054687;28;19924;-81
2022/10/04 13:08:13;;;;;;;;;;;17.60;57.80;;;;;;5046072;28;19913;-82
2022/10/04 13:10:59;;;;;;;;;;;17.60;58.30;;;;;;5054822;28;19913;-81
2022/10/04 13:13:40;;;;;;;;;;;17.60;58.20;;;;;;5050179;28;19921;-82
2022/10/04 13:16:26;;;;;;;;;;;17.70;57.00;;;;;;5045205;28;19928;-81
2022/10/04 13:19:02;;;;;;;;;;;17.70;57.40;;;;;;5050741;28;19920;-81
2022/10/04 13:21:40;;;;;;;;;;;17.80;58.20;;;;;;5054710;28;19913;-82
2022/10/04 13:24:08;;;;;;;;;;;17.80;57.40;;;;;;5041354;28;20018;-81
2022/10/04 13:26:34;;;;;;;;;;;17.60;58.60;;;;;;5048317;28;19913;-81
2022/10/04 13:29:06;;;;;;;;;;;17.60;58.00;;;;;;5047494;28;19953;-81
2022/10/04 13:31:33;;;;;;;;;;;17.80;59.00;;;;;;5052921;28;19921;-81
2022/10/04 13:34:04;;;;;;;;;;;17.90;56.90;;;;;;5043077;28;19913;-82
2022/10/04 13:36:48;;;;;;;;;;;17.80;56.30;;;;;;5061304;28;19978;-82
2022/10/04 13:39:22;;;;;;;;;;;18.00;56.60;;;;;;5046145;28;20090;-81
2022/10/04 13:42:07;;;;;;;;;;;18.00;54.50;;;;;;5044340;28;19918;-81
2022/10/04 13:44:33;;;;;;;;;;;17.90;54.10;;;;;;5050085;28;19998;-81
2022/10/04 13:47:10;;;;;;;;;;;17.80;55.00;;;;;;5043956;28;20269;-81
2022/10/04 13:49:48;;;;;;;;;;;17.80;54.80;;;;;;5053948;28;20331;-81
2022/10/04 13:58:18;;;;;;;;;;;17.90;53.70;;;;;;5051852;28;20000;-82
2022/10/04 14:00:55;;;;;;;;;;;18.00;53.60;;;;;;5045946;28;19960;-81
2022/10/04 14:03:39;;;;;;;;;;;17.90;53.90;;;;;;5041323;28;19917;-81
2022/10/04 14:06:07;;;;;;;;;;;17.90;53.50;;;;;;5058239;28;19916;-81
2022/10/04 14:08:36;;;;;;;;;;;18.00;53.80;;;;;;5053117;28;19976;-82
2022/10/04 14:11:07;;;;;;;;;;;17.90;53.90;;;;;;5054965;28;20600;-81
2022/10/04 14:13:47;;;;;;;;;;;17.90;54.00;;;;;;5051641;28;20308;-81
2022/10/04 14:16:26;;;;;;;;;;;18.00;54.30;;;;;;5061374;28;19909;-80
2022/10/04 14:18:51;;;;;;;;;;;18.10;53.20;;;;;;5051702;28;19967;-82
2022/10/04 14:21:36;;;;;;;;;;;18.10;51.60;;;;;;5056297;28;19913;-82
2022/10/04 14:24:17;;;;;;;;;;;18.10;51.80;;;;;;5050502;28;20008;-80
2022/10/04 14:26:54;;;;;;;;;;;18.10;51.00;;;;;;5051361;28;19925;-83
2022/10/04 14:29:22;;;;;;;;;;;18.00;51.50;;;;;;5058621;28;19979;-83
2022/10/04 14:32:03;;;;;;;;;;;18.10;51.40;;;;;;5040590;28;20059;-81
2022/10/04 14:34:52;;;;;;;;;;;18.10;52.30;;;;;;5052376;28;19920;-80
2022/10/04 14:37:28;;;;;;;;;;;18.00;53.40;;;;;;5061895;28;19916;-80
2022/10/04 14:40:12;;;;;;;;;;;18.00;53.70;;;;;;5046032;28;19913;-80
2022/10/04 14:42:38;;;;;;;;;;;18.00;54.80;;;;;;5043131;28;19909;-81
2022/10/04 14:45:12;;;;;;;;;;;18.10;55.30;;;;;;5044378;28;19913;-81
2022/10/04 14:47:47;;;;;;;;;;;18.10;55.50;;;;;;5052403;28;20521;-81
2022/10/04 14:50:28;;;;;;;;;;;18.00;56.10;;;;;;5062818;28;19908;-81
2022/10/04 14:53:14;;;;;;;;;;;18.00;55.20;;;;;;5042972;28;19909;-81
2022/10/04 14:55:49;;;;;;;;;;;18.20;54.10;;;;;;5039038;28;19916;-81
2022/10/04 14:58:23;;;;;;;;;;;18.30;54.30;;;;;;5059281;28;20274;-81
2022/10/04 15:00:53;;;;;;;;;;;18.20;54.20;;;;;;5041663;28;19917;-81
2022/10/04 15:03:30;;;;;;;;;;;18.30;54.10;;;;;;5043468;28;19909;-82
2022/10/04 15:06:09;;;;;;;;;;;18.30;54.30;;;;;;5040492;28;20395;-81
2022/10/04 15:08:35;;;;;;;;;;;18.30;53.30;;;;;;5065600;28;20450;-81